Погода Пуэрто-Кабесасна неделю

Атлантико-Норте, Никарагуа

22 - 28 февраля
  • 22февраля
    Сегодня
    +19°
    +29°
    Практически безоблачно
    ВремяПогодаТемператураВлажностьДавлениеВетер, м/сВероятность осадков
    00:00Ясно и безоблачно+21°C71 %763 мм5.7 м/с2 %
    03:00Ясно и безоблачно+21°C64 %762 мм5.4 м/с2 %
    06:00Ясно и безоблачно+20°C72 %762 мм1.6 м/с2 %
    09:00Ясно и безоблачно+25°C59 %763 мм3.8 м/с2 %
    12:00Небольшая облачность+28°C48 %761 мм3.9 м/с2 %
    15:00Практически безоблачно+28°C52 %759 мм5.0 м/с2 %
    18:00Ясно и безоблачно+24°C62 %760 мм6.0 м/с2 %
    21:00Ясно и безоблачно+22°C67 %761 мм4.0 м/с2 %
  • 23февраля
    Пятница
    +20°
    +30°
    Ясно и безоблачно
    ВремяПогодаТемператураВлажностьДавлениеВетер, м/сВероятность осадков
    00:00Практически безоблачно+21°C74 %760 мм2.3 м/с2 %
    03:00Небольшая облачность+20°C84 %759 мм1.4 м/с2 %
    06:00Практически безоблачно+20°C82 %760 мм1.5 м/с2 %
    09:00Практически безоблачно+26°C59 %761 мм1.6 м/с2 %
    12:00Практически безоблачно+28°C62 %760 мм3.3 м/с2 %
    15:00Ясно и безоблачно+29°C65 %758 мм4.0 м/с2 %
    18:00Ясно и безоблачно+25°C73 %758 мм3.5 м/с2 %
    21:00Ясно и безоблачно+23°C74 %760 мм3.6 м/с2 %
  • 24февраля
    Суббота
    +20°
    +31°
    Ясно и безоблачно
    ВремяПогодаТемператураВлажностьДавлениеВетер, м/сВероятность осадков
    00:00Ясно и безоблачно+22°C75 %760 мм3.2 м/с2 %
    03:00Ясно и безоблачно+21°C76 %759 мм2.1 м/с2 %
    06:00Ясно и безоблачно+21°C87 %760 мм1.6 м/с3 %
    09:00Ясно и безоблачно+27°C68 %762 мм1.6 м/с3 %
    12:00Практически безоблачно+29°C59 %761 мм4.0 м/с2 %
    15:00Ясно и безоблачно+29°C61 %760 мм4.4 м/с3 %
    18:00Ясно и безоблачно+25°C65 %761 мм7.1 м/с2 %
    21:00Ясно и безоблачно+23°C67 %763 мм5.7 м/с2 %
  • 25февраля
    Воскресенье
    +21°
    +29°
    Ясно и безоблачно
    ВремяПогодаТемператураВлажностьДавлениеВетер, м/сВероятность осадков
    00:00Практически безоблачно+21°C68 %763 мм4.4 м/с2 %
    03:00Облачно с прояснениями+21°C70 %762 мм3.4 м/с2 %
    06:00Облачно с прояснениями+21°C73 %763 мм1.5 м/с3 %
    09:00Практически безоблачно+26°C60 %764 мм4.2 м/с5 %
    12:00Ясно и безоблачно+29°C56 %763 мм4.5 м/с7 %
    15:00Ясно и безоблачно+29°C55 %761 мм5.5 м/с2 %
    18:00Ясно и безоблачно+26°C64 %762 мм6.1 м/с2 %
    21:00Ясно и безоблачно+23°C68 %763 мм5.2 м/с6 %
  • 26февраля
    Понедельник
    +22°
    +30°
    Практически безоблачно
    ВремяПогодаТемператураВлажностьДавлениеВетер, м/сВероятность осадков
    00:00Практически безоблачно+23°C82 %762 мм4.3 м/с23 %
    03:00Практически безоблачно+22°C90 %762 мм4.0 м/с28 %
    06:00Практически безоблачно+22°C92 %763 мм1.7 м/с39 %
    09:00Практически безоблачно+27°C74 %764 мм2.9 м/с46 %
    12:00Небольшая облачность+30°C67 %762 мм4.3 м/с39 %
    15:00Практически безоблачно+30°C71 %760 мм4.8 м/с20 %
    18:00Практически безоблачно+26°C79 %761 мм6.1 м/с9 %
    21:00Практически безоблачно+24°C82 %762 мм5.7 м/с19 %
Мы используем cookies
Соглашаюсь